createdAt,value
2023-01-20T00:01:47.932Z,-0.80
2023-01-20T00:04:19.691Z,-0.80
2023-01-20T00:06:51.452Z,-0.80
2023-01-20T00:09:23.176Z,-0.70
2023-01-20T00:11:54.904Z,-0.70
2023-01-20T00:14:27.743Z,-0.70
2023-01-20T00:17:00.191Z,-0.70
2023-01-20T00:19:31.887Z,-0.60
2023-01-20T00:22:03.585Z,-0.70
2023-01-20T00:24:35.363Z,-0.60
2023-01-20T00:27:07.684Z,-0.60
2023-01-20T00:29:39.391Z,-0.60
2023-01-20T00:32:11.870Z,-0.60
2023-01-20T00:34:43.540Z,-0.60
2023-01-20T00:37:15.328Z,-0.60
2023-01-20T00:39:47.041Z,-0.60
2023-01-20T00:42:18.809Z,-0.60
2023-01-20T00:44:50.596Z,-0.50
2023-01-20T00:47:22.522Z,-0.50
2023-01-20T00:49:54.293Z,-0.50
2023-01-20T00:52:26.076Z,-0.60
2023-01-20T00:54:57.818Z,-0.60
2023-01-20T00:57:29.541Z,-0.60
2023-01-20T01:00:01.222Z,-0.60
2023-01-20T01:02:38.350Z,-0.60
2023-01-20T01:05:10.186Z,-0.60
2023-01-20T01:07:42.319Z,-0.60
2023-01-20T01:10:14.119Z,-0.60
2023-01-20T01:12:45.825Z,-0.60
2023-01-20T01:15:17.640Z,-0.50
2023-01-20T01:17:49.364Z,-0.60
2023-01-20T01:20:21.131Z,-0.50
2023-01-20T01:22:52.875Z,-0.60
2023-01-20T01:25:24.715Z,-0.50
2023-01-20T01:27:56.404Z,-0.60
2023-01-20T01:30:28.255Z,-0.50
2023-01-20T01:33:00.159Z,-0.60
2023-01-20T01:35:31.988Z,-0.60
2023-01-20T01:38:03.744Z,-0.50
2023-01-20T01:40:35.601Z,-0.60
2023-01-20T01:43:28.844Z,-0.60
2023-01-20T01:46:00.690Z,-0.60
2023-01-20T01:48:45.685Z,-0.60
2023-01-20T01:51:25.774Z,-0.60
2023-01-20T01:54:03.071Z,-0.60
2023-01-20T01:56:35.600Z,-0.60
2023-01-20T01:59:14.916Z,-0.60
2023-01-20T02:01:56.013Z,-0.60
2023-01-20T02:04:28.948Z,-0.60
2023-01-20T02:07:10.248Z,-0.60
2023-01-20T02:09:42.424Z,-0.60
2023-01-20T02:12:17.891Z,-0.60
2023-01-20T02:14:54.287Z,-0.60
2023-01-20T02:17:29.022Z,-0.60
2023-01-20T02:20:22.735Z,-0.60
2023-01-20T02:23:10.679Z,-0.70
2023-01-20T02:26:00.232Z,-0.70
2023-01-20T02:28:37.761Z,-0.70
2023-01-20T02:31:49.607Z,-0.70
2023-01-20T02:34:24.415Z,-0.70
2023-01-20T02:37:00.087Z,-0.70
2023-01-20T02:39:46.159Z,-0.70
2023-01-20T02:42:42.630Z,-0.70
2023-01-20T02:45:33.204Z,-0.70
2023-01-20T02:48:12.740Z,-0.70
2023-01-20T02:51:05.373Z,-0.80
2023-01-20T02:53:45.436Z,-0.70
2023-01-20T02:56:19.699Z,-0.70
2023-01-20T02:59:00.273Z,-0.70
2023-01-20T03:01:55.806Z,-0.70
2023-01-20T03:04:31.591Z,-0.70
2023-01-20T03:07:04.773Z,-0.70
2023-01-20T03:09:41.425Z,-0.70
2023-01-20T03:12:27.104Z,-0.70
2023-01-20T03:14:58.900Z,-0.80
2023-01-20T03:17:32.319Z,-0.70
2023-01-20T03:20:04.726Z,-0.70
2023-01-20T03:22:36.882Z,-0.70
2023-01-20T03:25:11.070Z,-0.70
2023-01-20T03:27:43.049Z,-0.60
2023-01-20T03:30:16.500Z,-0.60
2023-01-20T03:32:51.316Z,-0.60
2023-01-20T03:35:23.780Z,-0.60
2023-01-20T03:37:55.836Z,-0.50
2023-01-20T03:40:32.438Z,-0.50
2023-01-20T03:43:17.064Z,-0.50
2023-01-20T03:46:05.137Z,-0.50
2023-01-20T03:48:46.320Z,-0.40
2023-01-20T03:51:35.958Z,-0.40
2023-01-20T03:54:11.264Z,-0.40
2023-01-20T03:57:03.986Z,-0.40
2023-01-20T03:59:40.228Z,-0.30
2023-01-20T04:02:12.314Z,-0.30
2023-01-20T04:04:47.549Z,-0.30
2023-01-20T04:07:23.431Z,-0.30
2023-01-20T04:10:00.519Z,-0.30
2023-01-20T04:12:32.276Z,-0.30
2023-01-20T04:15:06.769Z,-0.30
2023-01-20T04:17:38.544Z,-0.30
2023-01-20T04:20:12.976Z,-0.30
2023-01-20T04:22:52.375Z,-0.30
2023-01-20T04:25:31.391Z,-0.20
2023-01-20T04:28:03.097Z,-0.30
2023-01-20T04:30:34.782Z,-0.30
2023-01-20T04:33:06.517Z,-0.30
2023-01-20T04:35:38.187Z,-0.30
2023-01-20T04:38:10.106Z,-0.30
2023-01-20T04:40:42.191Z,-0.30
2023-01-20T04:43:13.969Z,-0.40
2023-01-20T04:45:45.725Z,-0.40
2023-01-20T04:48:17.495Z,-0.40
2023-01-20T04:50:49.312Z,-0.40
2023-01-20T04:53:21.158Z,-0.50
2023-01-20T04:55:52.960Z,-0.50
2023-01-20T04:58:24.818Z,-0.40
2023-01-20T05:00:56.539Z,-0.40
2023-01-20T05:03:28.208Z,-0.40
2023-01-20T05:06:00.042Z,-0.40
2023-01-20T05:08:31.957Z,-0.40
2023-01-20T05:11:04.053Z,-0.40
2023-01-20T05:13:39.121Z,-0.50
2023-01-20T05:16:11.388Z,-0.40
2023-01-20T05:18:43.193Z,-0.40
2023-01-20T05:21:15.025Z,-0.30
2023-01-20T05:23:46.756Z,-0.40
2023-01-20T05:26:18.494Z,-0.40
2023-01-20T05:28:50.489Z,-0.50
2023-01-20T05:31:22.258Z,-0.50
2023-01-20T05:33:54.171Z,-0.60
2023-01-20T05:36:28.264Z,-0.60
2023-01-20T05:39:00.008Z,-0.50
2023-01-20T05:41:31.730Z,-0.60
2023-01-20T05:44:03.537Z,-0.60
2023-01-20T05:46:35.292Z,-0.60
2023-01-20T05:49:07.097Z,-0.60
2023-01-20T05:51:38.819Z,-0.60
2023-01-20T05:54:10.595Z,-0.60
2023-01-20T05:56:42.267Z,-0.70
2023-01-20T05:59:13.991Z,-0.70
2023-01-20T06:01:45.788Z,-0.70
2023-01-20T06:04:17.478Z,-0.80
2023-01-20T06:06:49.218Z,-0.80
2023-01-20T06:09:21.049Z,-0.80
2023-01-20T06:11:52.715Z,-0.80
2023-01-20T06:14:24.535Z,-0.80
2023-01-20T06:16:56.255Z,-0.80
2023-01-20T06:19:28.138Z,-0.80
2023-01-20T06:21:59.885Z,-0.80
2023-01-20T06:24:31.637Z,-0.70
2023-01-20T06:27:03.348Z,-0.70
2023-01-20T06:29:35.104Z,-0.70
2023-01-20T06:32:06.905Z,-0.70
2023-01-20T06:34:38.641Z,-0.70
2023-01-20T06:37:10.374Z,-0.80
2023-01-20T06:39:42.203Z,-0.80
2023-01-20T06:42:13.985Z,-0.80
2023-01-20T06:44:45.667Z,-0.80
2023-01-20T06:47:17.360Z,-0.90
2023-01-20T06:49:49.097Z,-1.00
2023-01-20T06:52:20.841Z,-1.10
2023-01-20T06:54:52.645Z,-1.20
2023-01-20T06:57:24.390Z,-1.30
2023-01-20T06:59:56.238Z,-1.30
2023-01-20T07:02:28.043Z,-1.40
2023-01-20T07:05:00.394Z,-1.50
2023-01-20T07:07:32.070Z,-1.50
2023-01-20T07:10:04.307Z,-1.60
2023-01-20T07:12:36.055Z,-1.70
2023-01-20T07:15:08.178Z,-1.70
2023-01-20T07:17:40.093Z,-1.80
2023-01-20T07:20:12.265Z,-1.90
2023-01-20T07:22:44.041Z,-1.90
2023-01-20T07:25:15.984Z,-2.00
2023-01-20T07:27:48.315Z,-2.00
2023-01-20T07:30:20.489Z,-2.10
2023-01-20T07:32:53.381Z,-2.10
2023-01-20T07:35:25.618Z,-2.10
2023-01-20T07:37:57.500Z,-2.10
2023-01-20T07:40:29.248Z,-2.10
2023-01-20T07:43:04.049Z,-2.10
2023-01-20T07:45:35.793Z,-2.00
2023-01-20T07:48:09.524Z,-2.10
2023-01-20T07:50:41.261Z,-2.00
2023-01-20T07:53:13.028Z,-1.90
2023-01-20T07:55:44.806Z,-1.80
2023-01-20T07:58:16.485Z,-1.80
2023-01-20T08:00:49.088Z,-1.70
2023-01-20T08:03:20.883Z,-1.60
2023-01-20T08:05:52.583Z,-1.50
2023-01-20T08:08:24.343Z,-1.40
2023-01-20T08:10:56.549Z,-1.30
2023-01-20T08:13:29.502Z,-1.20
2023-01-20T08:16:03.515Z,-1.20
2023-01-20T08:18:36.044Z,-1.20
2023-01-20T08:21:16.469Z,-1.10
2023-01-20T08:23:48.809Z,-1.00
2023-01-20T08:26:20.638Z,-0.90
2023-01-20T08:28:52.674Z,-0.80
2023-01-20T08:31:24.947Z,-0.70
2023-01-20T08:33:56.895Z,-0.60
2023-01-20T08:36:31.697Z,-0.50
2023-01-20T08:39:06.287Z,-0.40
2023-01-20T08:41:39.239Z,-0.30
2023-01-20T08:44:11.655Z,-0.30
2023-01-20T08:46:44.525Z,-0.20
2023-01-20T08:49:17.638Z,-0.10
2023-01-20T08:51:49.576Z,-0.10
2023-01-20T08:54:22.288Z,0.00
2023-01-20T08:56:54.009Z,0.00
2023-01-20T08:59:25.773Z,0.10
2023-01-20T09:01:57.569Z,0.30
2023-01-20T09:04:29.293Z,0.30
2023-01-20T09:07:01.123Z,0.30
2023-01-20T09:09:32.879Z,0.40
2023-01-20T09:12:06.965Z,0.50
2023-01-20T09:14:39.391Z,0.70
2023-01-20T09:17:11.152Z,0.90
2023-01-20T09:19:42.979Z,0.90
2023-01-20T09:22:16.548Z,0.90
2023-01-20T09:24:48.368Z,0.90
2023-01-20T09:27:20.135Z,0.90
2023-01-20T09:29:51.794Z,0.80
2023-01-20T09:32:23.449Z,0.70
2023-01-20T09:34:56.827Z,0.60
2023-01-20T09:37:46.978Z,0.50
2023-01-20T09:40:40.047Z,0.50
2023-01-20T09:43:49.412Z,0.50
2023-01-20T09:47:17.630Z,0.70
2023-01-20T09:50:26.708Z,0.70
2023-01-20T09:53:16.700Z,0.80
2023-01-20T09:56:01.206Z,1.00
2023-01-20T09:58:45.272Z,1.20
2023-01-20T10:01:42.975Z,1.50
2023-01-20T10:04:37.009Z,1.60
2023-01-20T10:07:14.725Z,1.60
2023-01-20T10:09:52.728Z,1.70
2023-01-20T10:12:34.836Z,1.70
2023-01-20T10:15:13.053Z,2.20
2023-01-20T10:18:09.942Z,2.60
2023-01-20T10:21:15.037Z,2.60
2023-01-20T10:23:58.407Z,2.70
2023-01-20T10:26:42.095Z,3.10
2023-01-20T10:29:44.584Z,3.00
2023-01-20T10:32:27.657Z,2.90
2023-01-20T10:35:23.308Z,2.90
2023-01-20T10:37:56.144Z,3.10
2023-01-20T10:40:49.460Z,4.20
2023-01-20T10:43:21.435Z,5.10
2023-01-20T10:46:02.453Z,5.50
2023-01-20T10:48:52.801Z,6.00
2023-01-20T10:51:48.740Z,5.60
2023-01-20T10:54:52.274Z,5.60
2023-01-20T10:57:24.290Z,5.10
2023-01-20T11:00:14.129Z,4.90
2023-01-20T11:02:49.191Z,4.70
2023-01-20T11:05:27.533Z,4.10
2023-01-20T11:08:02.082Z,4.00
2023-01-20T11:10:33.831Z,3.90
2023-01-20T11:13:05.565Z,3.80
2023-01-20T11:15:43.968Z,3.90
2023-01-20T11:18:15.607Z,4.00
2023-01-20T11:21:22.560Z,4.40
2023-01-20T11:23:56.147Z,4.80
2023-01-20T11:26:32.394Z,5.20
2023-01-20T11:29:28.727Z,6.40
2023-01-20T11:32:00.559Z,6.40
2023-01-20T11:34:34.864Z,6.20
2023-01-20T11:37:06.639Z,6.30
2023-01-20T11:39:50.354Z,5.60
2023-01-20T11:42:27.882Z,5.00
2023-01-20T11:45:19.879Z,4.70
2023-01-20T11:48:00.437Z,4.30
2023-01-20T11:50:47.389Z,3.70
2023-01-20T11:53:20.694Z,3.50
2023-01-20T11:55:52.478Z,3.20
2023-01-20T11:58:32.050Z,3.00
2023-01-20T12:01:19.835Z,2.80
2023-01-20T12:04:24.976Z,2.50
2023-01-20T12:07:04.927Z,2.30
2023-01-20T12:09:40.523Z,2.10
2023-01-20T12:12:27.652Z,2.10
2023-01-20T12:15:11.854Z,2.00
2023-01-20T12:17:58.471Z,1.90
2023-01-20T12:20:57.827Z,2.00
2023-01-20T12:23:56.985Z,2.00
2023-01-20T12:26:29.020Z,1.90
2023-01-20T12:29:12.555Z,1.80
2023-01-20T12:31:48.867Z,1.80
2023-01-20T12:34:28.247Z,1.80
2023-01-20T12:37:08.828Z,1.90
2023-01-20T12:39:59.272Z,1.90
2023-01-20T12:43:11.604Z,1.90
2023-01-20T12:45:59.541Z,2.00
2023-01-20T12:48:55.945Z,2.00
2023-01-20T12:51:33.825Z,1.90
2023-01-20T12:54:47.760Z,1.90
2023-01-20T12:57:43.322Z,1.90
2023-01-20T13:00:27.178Z,1.90
2023-01-20T13:03:19.448Z,1.90
2023-01-20T13:05:57.366Z,1.80
2023-01-20T13:09:12.755Z,1.90
2023-01-20T13:11:51.043Z,1.90
2023-01-20T13:14:54.311Z,2.00
2023-01-20T13:17:38.840Z,2.10
2023-01-20T13:20:21.717Z,2.20
2023-01-20T13:22:55.252Z,2.40
2023-01-20T13:25:28.130Z,2.50
2023-01-20T13:28:00.416Z,2.60
2023-01-20T13:30:44.645Z,2.70
2023-01-20T13:33:41.441Z,2.70
2023-01-20T13:36:19.013Z,2.70
2023-01-20T13:39:11.208Z,2.50
2023-01-20T13:41:53.220Z,2.50
2023-01-20T13:44:37.471Z,2.50
2023-01-20T13:47:10.684Z,2.60
2023-01-20T13:49:52.028Z,2.60
2023-01-20T13:52:54.771Z,2.70
2023-01-20T13:55:50.857Z,2.80
2023-01-20T13:58:33.563Z,2.80
2023-01-20T14:01:13.549Z,2.90
2023-01-20T14:04:01.724Z,3.10
2023-01-20T14:06:35.767Z,3.00
2023-01-20T14:09:11.812Z,3.10
2023-01-20T14:11:50.186Z,3.10
2023-01-20T14:14:24.871Z,3.20
2023-01-20T14:16:57.213Z,3.20
2023-01-20T14:19:34.883Z,3.00
2023-01-20T14:22:24.094Z,3.00
2023-01-20T14:25:00.729Z,2.90
2023-01-20T14:27:37.158Z,2.90
2023-01-20T14:30:20.858Z,2.90
2023-01-20T14:32:53.364Z,2.70
2023-01-20T14:35:33.456Z,2.60
2023-01-20T14:38:05.173Z,2.40
2023-01-20T14:40:36.968Z,2.20
2023-01-20T14:43:20.355Z,2.00
2023-01-20T14:45:52.824Z,1.90
2023-01-20T14:48:33.944Z,1.90
2023-01-20T14:51:07.948Z,1.80
2023-01-20T14:53:39.687Z,1.80
2023-01-20T14:56:20.724Z,1.70
2023-01-20T14:58:54.728Z,1.60
2023-01-20T15:01:27.228Z,1.50
2023-01-20T15:04:01.969Z,1.40
2023-01-20T15:06:33.795Z,1.30
2023-01-20T15:09:28.183Z,1.20
2023-01-20T15:12:40.649Z,1.10
2023-01-20T15:15:29.497Z,1.00
2023-01-20T15:18:17.016Z,0.90
2023-01-20T15:21:16.960Z,0.80
2023-01-20T15:23:52.611Z,0.70
2023-01-20T15:26:30.095Z,0.70
2023-01-20T15:29:01.893Z,0.60
2023-01-20T15:31:33.766Z,0.50
2023-01-20T15:34:05.475Z,0.40
2023-01-20T15:36:39.558Z,0.40
2023-01-20T15:39:23.011Z,0.30
2023-01-20T15:41:54.865Z,0.20
2023-01-20T15:44:27.166Z,0.20
2023-01-20T15:46:58.866Z,0.10
2023-01-20T15:49:30.699Z,0.10
2023-01-20T15:52:02.473Z,0.00
2023-01-20T15:54:34.225Z,0.00
2023-01-20T15:57:15.356Z,-0.10
2023-01-20T15:59:49.580Z,-0.10
2023-01-20T16:02:23.617Z,-0.20
2023-01-20T16:04:55.404Z,-0.30
2023-01-20T16:07:28.567Z,-0.30
2023-01-20T16:10:00.334Z,-0.40
2023-01-20T16:12:32.212Z,-0.40
2023-01-20T16:15:04.291Z,-0.50
2023-01-20T16:17:36.017Z,-0.50
2023-01-20T16:20:21.779Z,-0.60
2023-01-20T16:22:53.627Z,-0.60
2023-01-20T16:25:28.686Z,-0.70
2023-01-20T16:28:01.389Z,-0.70
2023-01-20T16:30:33.062Z,-0.70
2023-01-20T16:33:04.840Z,-0.80
2023-01-20T16:35:36.548Z,-0.80
2023-01-20T16:38:14.572Z,-0.90
2023-01-20T16:41:11.745Z,-0.90
2023-01-20T16:43:43.864Z,-0.90
2023-01-20T16:46:21.622Z,-1.00
2023-01-20T16:49:01.711Z,-1.00
2023-01-20T16:51:33.757Z,-1.10
2023-01-20T16:54:05.601Z,-1.10
2023-01-20T16:56:37.355Z,-1.10
2023-01-20T16:59:09.760Z,-1.10
2023-01-20T17:01:41.536Z,-1.10
2023-01-20T17:04:13.571Z,-1.20
2023-01-20T17:06:45.481Z,-1.20
2023-01-20T17:09:17.232Z,-1.20
2023-01-20T17:11:49.031Z,-1.30
2023-01-20T17:14:20.776Z,-1.30
2023-01-20T17:16:53.754Z,-1.30
2023-01-20T17:19:26.776Z,-1.30
2023-01-20T17:21:58.542Z,-1.30
2023-01-20T17:24:30.387Z,-1.40
2023-01-20T17:27:02.187Z,-1.40
2023-01-20T17:29:35.404Z,-1.50
2023-01-20T17:32:07.120Z,-1.50
2023-01-20T17:34:38.844Z,-1.50
2023-01-20T17:37:10.582Z,-1.60
2023-01-20T17:39:42.685Z,-1.60
2023-01-20T17:42:16.753Z,-1.60
2023-01-20T17:44:49.353Z,-1.70
2023-01-20T17:47:21.250Z,-1.70
2023-01-20T17:49:53.001Z,-1.70
2023-01-20T17:52:24.891Z,-1.80
2023-01-20T17:54:56.661Z,-1.80
2023-01-20T17:57:30.150Z,-1.80
2023-01-20T18:00:02.078Z,-1.80
2023-01-20T18:02:33.824Z,-1.90
2023-01-20T18:05:06.067Z,-1.90
2023-01-20T18:07:38.118Z,-1.90
2023-01-20T18:10:11.263Z,-1.90
2023-01-20T18:12:43.054Z,-1.90
2023-01-20T18:15:14.796Z,-1.90
2023-01-20T18:17:46.692Z,-1.90
2023-01-20T18:20:19.205Z,-2.00
2023-01-20T18:22:51.409Z,-2.00
2023-01-20T18:25:23.170Z,-2.00
2023-01-20T18:27:54.916Z,-2.10
2023-01-20T18:30:26.636Z,-2.10
2023-01-20T18:32:58.397Z,-2.10
2023-01-20T18:35:30.494Z,-2.10
2023-01-20T18:38:02.330Z,-2.00
2023-01-20T18:40:34.049Z,-2.00
2023-01-20T18:43:05.707Z,-2.00
2023-01-20T18:45:37.426Z,-2.00
2023-01-20T18:48:09.895Z,-2.00
2023-01-20T18:50:41.554Z,-2.10
2023-01-20T18:53:13.907Z,-2.20
2023-01-20T18:55:45.674Z,-2.30
2023-01-20T18:58:17.492Z,-2.30
2023-01-20T19:00:49.215Z,-2.30
2023-01-20T19:03:20.954Z,-2.40
2023-01-20T19:05:52.615Z,-2.40
2023-01-20T19:08:24.315Z,-2.40
2023-01-20T19:11:03.928Z,-2.40
2023-01-20T19:13:36.222Z,-2.40
2023-01-20T19:16:10.520Z,-2.40
2023-01-20T19:18:44.007Z,-2.40
2023-01-20T19:21:15.913Z,-2.40
2023-01-20T19:24:07.821Z,-2.40
2023-01-20T19:26:39.690Z,-2.40
2023-01-20T19:29:15.613Z,-2.40
2023-01-20T19:31:48.717Z,-2.40
2023-01-20T19:34:20.482Z,-2.50
2023-01-20T19:36:52.262Z,-2.40
2023-01-20T19:39:23.986Z,-2.50
2023-01-20T19:41:55.669Z,-2.50
2023-01-20T19:44:27.785Z,-2.50
2023-01-20T19:47:04.138Z,-2.50
2023-01-20T19:49:35.877Z,-2.60
2023-01-20T19:52:07.597Z,-2.60
2023-01-20T19:54:39.753Z,-2.60
2023-01-20T19:57:11.428Z,-2.60
2023-01-20T19:59:43.243Z,-2.60
2023-01-20T20:02:15.081Z,-2.60
2023-01-20T20:04:46.804Z,-2.60
2023-01-20T20:07:18.601Z,-2.60
2023-01-20T20:09:51.504Z,-2.60
2023-01-20T20:12:23.226Z,-2.70
2023-01-20T20:14:56.687Z,-2.70
2023-01-20T20:17:29.141Z,-2.70
2023-01-20T20:20:00.963Z,-2.70
2023-01-20T20:22:32.666Z,-2.70
2023-01-20T20:25:05.697Z,-2.70
2023-01-20T20:27:37.499Z,-2.70
2023-01-20T20:30:09.887Z,-2.70
2023-01-20T20:32:41.579Z,-2.70
2023-01-20T20:35:13.351Z,-2.70
2023-01-20T20:37:45.158Z,-2.70
2023-01-20T20:40:17.447Z,-2.70
2023-01-20T20:42:49.470Z,-2.60
2023-01-20T20:45:21.217Z,-2.50
2023-01-20T20:47:52.964Z,-2.50
2023-01-20T20:50:25.269Z,-2.50
2023-01-20T20:52:57.995Z,-2.40
2023-01-20T20:55:29.778Z,-2.40
2023-01-20T20:58:01.692Z,-2.30
2023-01-20T21:00:33.446Z,-2.30
2023-01-20T21:03:08.771Z,-2.30
2023-01-20T21:05:44.120Z,-2.20
2023-01-20T21:08:16.612Z,-2.10
2023-01-20T21:10:48.280Z,-2.20
2023-01-20T21:13:20.449Z,-2.10
2023-01-20T21:16:06.077Z,-2.20
2023-01-20T21:18:38.852Z,-2.10
2023-01-20T21:21:13.463Z,-2.20
2023-01-20T21:23:55.869Z,-2.20
2023-01-20T21:26:30.694Z,-2.20
2023-01-20T21:29:03.683Z,-2.10
2023-01-20T21:31:35.514Z,-2.10
2023-01-20T21:34:07.195Z,-2.00
2023-01-20T21:36:41.731Z,-2.00
2023-01-20T21:39:15.749Z,-2.00
2023-01-20T21:41:47.418Z,-2.00
2023-01-20T21:44:28.325Z,-2.00
2023-01-20T21:47:02.781Z,-2.00
2023-01-20T21:49:53.914Z,-1.90
2023-01-20T21:52:41.323Z,-1.90
2023-01-20T21:55:19.014Z,-1.90
2023-01-20T21:57:51.563Z,-1.90
2023-01-20T22:00:23.565Z,-1.90
2023-01-20T22:02:55.253Z,-2.00
2023-01-20T22:05:27.089Z,-2.00
2023-01-20T22:07:58.862Z,-2.00
2023-01-20T22:10:32.585Z,-2.00
2023-01-20T22:13:04.312Z,-2.10
2023-01-20T22:15:35.992Z,-2.10
2023-01-20T22:18:07.681Z,-2.10
2023-01-20T22:20:39.352Z,-2.20
2023-01-20T22:23:11.542Z,-2.20
2023-01-20T22:25:43.359Z,-2.20
2023-01-20T22:28:15.052Z,-2.30
2023-01-20T22:30:46.790Z,-2.30
2023-01-20T22:33:18.510Z,-2.30
2023-01-20T22:35:54.204Z,-2.30
2023-01-20T22:38:26.018Z,-2.40
2023-01-20T22:41:08.140Z,-2.30
2023-01-20T22:43:43.817Z,-2.30
2023-01-20T22:46:16.971Z,-2.30
2023-01-20T22:48:49.468Z,-2.30
2023-01-20T22:51:23.507Z,-2.30
2023-01-20T22:53:56.540Z,-2.30
2023-01-20T22:56:32.202Z,-2.30
2023-01-20T22:59:03.879Z,-2.20
2023-01-20T23:01:36.029Z,-2.30
2023-01-20T23:04:07.800Z,-2.40
2023-01-20T23:06:40.267Z,-2.40
2023-01-20T23:09:14.418Z,-2.50
2023-01-20T23:11:47.490Z,-2.50
2023-01-20T23:14:39.208Z,-2.60
2023-01-20T23:17:10.933Z,-2.60
2023-01-20T23:19:42.716Z,-2.60
2023-01-20T23:22:14.559Z,-2.60
2023-01-20T23:24:46.516Z,-2.60
2023-01-20T23:27:18.352Z,-2.60
2023-01-20T23:29:50.136Z,-2.60
2023-01-20T23:32:21.935Z,-2.60
2023-01-20T23:34:53.655Z,-2.70
2023-01-20T23:37:25.401Z,-2.80
2023-01-20T23:39:57.143Z,-2.80
2023-01-20T23:42:28.884Z,-2.80
2023-01-20T23:45:00.572Z,-2.90
2023-01-20T23:47:32.311Z,-2.80
2023-01-20T23:50:04.976Z,-2.90
2023-01-20T23:52:36.784Z,-2.90
2023-01-20T23:55:09.008Z,-2.80
2023-01-20T23:57:41.828Z,-2.80
